sensor_id;sensor_type;location;lat;lon;timestamp;pressure;altitude;pressure_sealevel;temperature;humidity
5952;BME280;3001;42.622;23.194;2023-03-20T00:00:05;91573.75;;;6.79;71.39
5952;BME280;3001;42.622;23.194;2023-03-20T00:02:35;91582.00;;;6.81;71.29
5952;BME280;3001;42.622;23.194;2023-03-20T00:05:13;91577.31;;;6.83;71.66
5952;BME280;3001;42.622;23.194;2023-03-20T00:07:40;91582.34;;;6.70;73.09
5952;BME280;3001;42.622;23.194;2023-03-20T00:10:09;91583.56;;;6.78;73.86
5952;BME280;3001;42.622;23.194;2023-03-20T00:12:36;91579.78;;;6.98;72.33
5952;BME280;3001;42.622;23.194;2023-03-20T00:15:06;91576.72;;;6.96;72.84
5952;BME280;3001;42.622;23.194;2023-03-20T00:17:42;91568.78;;;6.88;73.83
5952;BME280;3001;42.622;23.194;2023-03-20T00:20:14;91574.91;;;6.64;75.34
5952;BME280;3001;42.622;23.194;2023-03-20T00:22:41;91566.16;;;6.60;75.55
5952;BME280;3001;42.622;23.194;2023-03-20T00:25:12;91564.06;;;6.62;76.38
5952;BME280;3001;42.622;23.194;2023-03-20T00:27:38;91563.56;;;6.60;76.06
5952;BME280;3001;42.622;23.194;2023-03-20T00:30:15;91565.91;;;6.61;75.47
5952;BME280;3001;42.622;23.194;2023-03-20T00:32:45;91565.31;;;6.69;75.72
5952;BME280;3001;42.622;23.194;2023-03-20T00:35:20;91560.44;;;6.68;74.72
5952;BME280;3001;42.622;23.194;2023-03-20T00:37:47;91559.31;;;6.78;74.92
5952;BME280;3001;42.622;23.194;2023-03-20T00:40:14;91558.94;;;6.90;75.63
5952;BME280;3001;42.622;23.194;2023-03-20T00:42:42;91561.50;;;6.95;73.69
5952;BME280;3001;42.622;23.194;2023-03-20T00:45:11;91558.94;;;6.90;74.44
5952;BME280;3001;42.622;23.194;2023-03-20T00:47:39;91556.97;;;6.82;74.83
5952;BME280;3001;42.622;23.194;2023-03-20T00:50:14;91556.88;;;6.59;74.40
5952;BME280;3001;42.622;23.194;2023-03-20T00:52:42;91557.41;;;6.56;75.36
5952;BME280;3001;42.622;23.194;2023-03-20T00:55:09;91556.66;;;6.55;74.41
5952;BME280;3001;42.622;23.194;2023-03-20T00:57:39;91556.66;;;6.55;74.32
5952;BME280;3001;42.622;23.194;2023-03-20T01:00:19;91549.63;;;6.61;73.91
5952;BME280;3001;42.622;23.194;2023-03-20T01:02:46;91550.41;;;6.61;74.15
5952;BME280;3001;42.622;23.194;2023-03-20T01:05:13;91549.97;;;6.54;75.61
5952;BME280;3001;42.622;23.194;2023-03-20T01:07:40;91552.72;;;6.63;74.90
5952;BME280;3001;42.622;23.194;2023-03-20T01:10:09;91538.63;;;6.50;75.76
5952;BME280;3001;42.622;23.194;2023-03-20T01:12:37;91542.16;;;6.59;74.01
5952;BME280;3001;42.622;23.194;2023-03-20T01:15:14;91537.81;;;6.55;73.26
5952;BME280;3001;42.622;23.194;2023-03-20T01:17:41;91540.41;;;6.55;73.39
5952;BME280;3001;42.622;23.194;2023-03-20T01:20:13;91524.31;;;6.63;72.83
5952;BME280;3001;42.622;23.194;2023-03-20T01:22:40;91542.22;;;6.54;73.03
5952;BME280;3001;42.622;23.194;2023-03-20T01:25:09;91543.75;;;6.55;74.10
5952;BME280;3001;42.622;23.194;2023-03-20T01:27:36;91546.28;;;6.60;72.99
5952;BME280;3001;42.622;23.194;2023-03-20T01:30:11;91547.34;;;6.59;73.08
5952;BME280;3001;42.622;23.194;2023-03-20T01:32:41;91546.25;;;6.65;72.07
5952;BME280;3001;42.622;23.194;2023-03-20T01:35:11;91542.97;;;6.55;72.91
5952;BME280;3001;42.622;23.194;2023-03-20T01:37:38;91551.66;;;6.69;71.81
5952;BME280;3001;42.622;23.194;2023-03-20T01:40:15;91550.41;;;6.61;72.40
5952;BME280;3001;42.622;23.194;2023-03-20T01:42:45;91549.72;;;6.84;70.35
5952;BME280;3001;42.622;23.194;2023-03-20T01:45:18;91545.34;;;6.79;70.40
5952;BME280;3001;42.622;23.194;2023-03-20T01:47:47;91538.44;;;6.70;72.61
5952;BME280;3001;42.622;23.194;2023-03-20T01:50:29;91544.91;;;7.01;70.23
5952;BME280;3001;42.622;23.194;2023-03-20T01:53:05;91543.81;;;7.07;70.04
5952;BME280;3001;42.622;23.194;2023-03-20T01:55:36;91543.06;;;6.73;70.51
5952;BME280;3001;42.622;23.194;2023-03-20T01:58:06;91540.59;;;6.63;71.16
5952;BME280;3001;42.622;23.194;2023-03-20T02:00:35;91536.53;;;6.52;70.32
5952;BME280;3001;42.622;23.194;2023-03-20T02:03:05;91538.91;;;6.49;71.37
5952;BME280;3001;42.622;23.194;2023-03-20T02:05:34;91536.88;;;6.41;71.90
5952;BME280;3001;42.622;23.194;2023-03-20T02:08:10;91536.16;;;6.35;72.27
5952;BME280;3001;42.622;23.194;2023-03-20T02:10:44;91525.59;;;6.32;73.42
5952;BME280;3001;42.622;23.194;2023-03-20T02:13:12;91529.75;;;6.28;75.45
5952;BME280;3001;42.622;23.194;2023-03-20T02:16:00;91533.72;;;6.10;74.00
5952;BME280;3001;42.622;23.194;2023-03-20T02:18:27;91540.19;;;6.08;75.70
5952;BME280;3001;42.622;23.194;2023-03-20T02:24:32;91538.94;;;6.00;75.88
5952;BME280;3001;42.622;23.194;2023-03-20T02:27:14;91543.94;;;5.87;76.73
5952;BME280;3001;42.622;23.194;2023-03-20T02:36:18;91534.09;;;5.94;73.28
5952;BME280;3001;42.622;23.194;2023-03-20T02:39:09;91525.34;;;5.90;75.28
5952;BME280;3001;42.622;23.194;2023-03-20T02:41:43;91521.69;;;5.96;76.50
5952;BME280;3001;42.622;23.194;2023-03-20T02:44:19;91522.25;;;5.88;77.85
5952;BME280;3001;42.622;23.194;2023-03-20T02:46:53;91519.19;;;5.81;77.31
5952;BME280;3001;42.622;23.194;2023-03-20T02:49:32;91523.06;;;5.83;75.84
5952;BME280;3001;42.622;23.194;2023-03-20T02:52:13;91524.59;;;5.84;75.46
5952;BME280;3001;42.622;23.194;2023-03-20T02:54:52;91516.25;;;6.02;74.67
5952;BME280;3001;42.622;23.194;2023-03-20T02:57:24;91527.63;;;5.91;74.40
5952;BME280;3001;42.622;23.194;2023-03-20T02:59:57;91511.94;;;5.88;75.95
5952;BME280;3001;42.622;23.194;2023-03-20T03:02:30;91524.56;;;5.94;75.31
5952;BME280;3001;42.622;23.194;2023-03-20T03:05:02;91527.09;;;5.99;74.99
5952;BME280;3001;42.622;23.194;2023-03-20T03:07:32;91519.56;;;6.08;74.31
5952;BME280;3001;42.622;23.194;2023-03-20T03:10:04;91521.31;;;6.12;73.83
5952;BME280;3001;42.622;23.194;2023-03-20T03:12:35;91499.69;;;6.08;73.25
5952;BME280;3001;42.622;23.194;2023-03-20T03:15:06;91522.53;;;6.30;73.55
5952;BME280;3001;42.622;23.194;2023-03-20T03:17:41;91516.28;;;6.36;72.78
5952;BME280;3001;42.622;23.194;2023-03-20T03:20:18;91517.03;;;6.41;74.17
5952;BME280;3001;42.622;23.194;2023-03-20T03:22:47;91516.03;;;6.32;73.65
5952;BME280;3001;42.622;23.194;2023-03-20T03:25:16;91514.53;;;6.26;73.87
5952;BME280;3001;42.622;23.194;2023-03-20T03:27:44;91493.50;;;6.09;72.69
5952;BME280;3001;42.622;23.194;2023-03-20T03:30:16;91517.22;;;6.11;72.60
5952;BME280;3001;42.622;23.194;2023-03-20T03:32:48;91510.25;;;6.12;74.94
5952;BME280;3001;42.622;23.194;2023-03-20T03:35:18;91504.09;;;6.08;73.00
5952;BME280;3001;42.622;23.194;2023-03-20T03:37:50;91524.44;;;6.14;73.73
5952;BME280;3001;42.622;23.194;2023-03-20T03:40:27;91521.88;;;6.09;73.25
5952;BME280;3001;42.622;23.194;2023-03-20T03:43:00;91524.13;;;6.21;71.69
5952;BME280;3001;42.622;23.194;2023-03-20T03:45:31;91519.75;;;6.21;72.49
5952;BME280;3001;42.622;23.194;2023-03-20T03:48:02;91529.81;;;6.18;74.30
5952;BME280;3001;42.622;23.194;2023-03-20T03:50:35;91526.19;;;6.24;76.40
5952;BME280;3001;42.622;23.194;2023-03-20T03:53:07;91510.50;;;6.15;76.62
5952;BME280;3001;42.622;23.194;2023-03-20T03:55:39;91514.88;;;6.15;75.04
5952;BME280;3001;42.622;23.194;2023-03-20T03:58:10;91511.72;;;6.23;74.03
5952;BME280;3001;42.622;23.194;2023-03-20T04:00:40;91516.38;;;6.21;73.94
5952;BME280;3001;42.622;23.194;2023-03-20T04:03:08;91507.38;;;6.18;74.19
5952;BME280;3001;42.622;23.194;2023-03-20T04:05:39;91505.44;;;6.00;74.61
5952;BME280;3001;42.622;23.194;2023-03-20T04:08:06;91515.75;;;6.00;75.76
5952;BME280;3001;42.622;23.194;2023-03-20T04:10:33;91508.97;;;6.09;74.73
5952;BME280;3001;42.622;23.194;2023-03-20T04:13:01;91513.16;;;6.00;74.13
5952;BME280;3001;42.622;23.194;2023-03-20T04:15:28;91512.09;;;6.06;75.49
5952;BME280;3001;42.622;23.194;2023-03-20T04:17:55;91496.41;;;6.03;75.68
5952;BME280;3001;42.622;23.194;2023-03-20T04:20:22;91487.88;;;6.02;75.58
5952;BME280;3001;42.622;23.194;2023-03-20T04:22:48;91501.06;;;5.96;76.07
5952;BME280;3001;42.622;23.194;2023-03-20T04:25:18;91486.59;;;6.00;73.79
5952;BME280;3001;42.622;23.194;2023-03-20T04:27:45;91486.50;;;6.15;73.11
5952;BME280;3001;42.622;23.194;2023-03-20T04:30:13;91483.19;;;6.14;73.29
5952;BME280;3001;42.622;23.194;2023-03-20T04:32:40;91468.00;;;6.08;72.12
5952;BME280;3001;42.622;23.194;2023-03-20T04:35:07;91484.72;;;6.15;71.73
5952;BME280;3001;42.622;23.194;2023-03-20T04:37:34;91484.56;;;5.97;72.51
5952;BME280;3001;42.622;23.194;2023-03-20T04:40:01;91491.59;;;5.86;73.88
5952;BME280;3001;42.622;23.194;2023-03-20T04:42:28;91488.50;;;5.84;74.34
5952;BME280;3001;42.622;23.194;2023-03-20T04:44:55;91492.66;;;5.75;73.71
5952;BME280;3001;42.622;23.194;2023-03-20T04:47:23;91494.75;;;5.73;75.13
5952;BME280;3001;42.622;23.194;2023-03-20T04:49:50;91497.75;;;5.95;72.99
5952;BME280;3001;42.622;23.194;2023-03-20T04:52:16;91512.69;;;5.93;72.52
5952;BME280;3001;42.622;23.194;2023-03-20T04:54:43;91516.44;;;6.11;75.40
5952;BME280;3001;42.622;23.194;2023-03-20T04:57:10;91520.28;;;6.18;73.41
5952;BME280;3001;42.622;23.194;2023-03-20T04:59:36;91524.69;;;6.13;74.69
5952;BME280;3001;42.622;23.194;2023-03-20T05:02:03;91525.94;;;6.20;74.14
5952;BME280;3001;42.622;23.194;2023-03-20T05:04:31;91522.38;;;6.50;73.95
5952;BME280;3001;42.622;23.194;2023-03-20T05:06:58;91522.59;;;6.53;72.74
5952;BME280;3001;42.622;23.194;2023-03-20T05:09:25;91511.75;;;6.51;72.98
5952;BME280;3001;42.622;23.194;2023-03-20T05:11:51;91528.72;;;6.62;75.70
5952;BME280;3001;42.622;23.194;2023-03-20T05:14:18;91527.78;;;6.81;73.25
5952;BME280;3001;42.622;23.194;2023-03-20T05:16:45;91530.16;;;6.73;73.93
5952;BME280;3001;42.622;23.194;2023-03-20T05:19:11;91529.00;;;6.89;72.96
5952;BME280;3001;42.622;23.194;2023-03-20T05:21:39;91538.22;;;7.00;74.26
5952;BME280;3001;42.622;23.194;2023-03-20T05:24:07;91541.53;;;7.05;73.41
5952;BME280;3001;42.622;23.194;2023-03-20T05:26:33;91546.63;;;7.10;73.03
5952;BME280;3001;42.622;23.194;2023-03-20T05:29:00;91545.53;;;7.16;72.63
5952;BME280;3001;42.622;23.194;2023-03-20T05:31:26;91541.06;;;7.50;73.43
5952;BME280;3001;42.622;23.194;2023-03-20T05:33:53;91542.31;;;7.29;71.80
5952;BME280;3001;42.622;23.194;2023-03-20T05:36:20;91548.19;;;7.35;68.20
5952;BME280;3001;42.622;23.194;2023-03-20T05:38:48;91540.00;;;7.51;65.44
5952;BME280;3001;42.622;23.194;2023-03-20T05:41:15;91541.09;;;7.69;64.59
5952;BME280;3001;42.622;23.194;2023-03-20T05:43:41;91536.47;;;7.66;65.62
5952;BME280;3001;42.622;23.194;2023-03-20T05:46:08;91543.78;;;7.82;65.46
5952;BME280;3001;42.622;23.194;2023-03-20T05:48:35;91552.25;;;7.88;65.34
5952;BME280;3001;42.622;23.194;2023-03-20T05:51:02;91531.31;;;7.66;66.51
5952;BME280;3001;42.622;23.194;2023-03-20T05:53:29;91557.00;;;7.99;65.34
5952;BME280;3001;42.622;23.194;2023-03-20T05:55:57;91557.22;;;8.03;63.84
5952;BME280;3001;42.622;23.194;2023-03-20T05:58:24;91558.06;;;8.17;65.08
5952;BME280;3001;42.622;23.194;2023-03-20T06:00:51;91559.97;;;8.11;65.21
5952;BME280;3001;42.622;23.194;2023-03-20T06:03:18;91552.03;;;8.26;62.59
5952;BME280;3001;42.622;23.194;2023-03-20T06:05:45;91550.56;;;8.20;60.45
5952;BME280;3001;42.622;23.194;2023-03-20T06:08:11;91548.50;;;8.17;61.89
5952;BME280;3001;42.622;23.194;2023-03-20T06:10:38;91549.44;;;8.26;61.25
5952;BME280;3001;42.622;23.194;2023-03-20T06:13:08;91551.75;;;8.28;62.16
5952;BME280;3001;42.622;23.194;2023-03-20T06:15:35;91549.03;;;8.38;62.99
5952;BME280;3001;42.622;23.194;2023-03-20T06:18:01;91552.66;;;8.55;60.97
5952;BME280;3001;42.622;23.194;2023-03-20T06:20:28;91547.81;;;8.67;59.92
5952;BME280;3001;42.622;23.194;2023-03-20T06:22:55;91557.88;;;8.68;60.70
5952;BME280;3001;42.622;23.194;2023-03-20T06:25:21;91551.00;;;8.77;60.30
5952;BME280;3001;42.622;23.194;2023-03-20T06:27:48;91546.22;;;8.71;61.25
5952;BME280;3001;42.622;23.194;2023-03-20T06:30:17;91555.84;;;8.84;61.91
5952;BME280;3001;42.622;23.194;2023-03-20T06:32:44;91542.50;;;8.77;61.02
5952;BME280;3001;42.622;23.194;2023-03-20T06:35:11;91556.81;;;8.88;61.01
5952;BME280;3001;42.622;23.194;2023-03-20T06:37:38;91561.06;;;8.97;60.72
5952;BME280;3001;42.622;23.194;2023-03-20T06:40:06;91560.22;;;9.02;61.10
5952;BME280;3001;42.622;23.194;2023-03-20T06:42:34;91560.81;;;9.12;62.04
5952;BME280;3001;42.622;23.194;2023-03-20T06:45:01;91562.56;;;9.17;61.50
5952;BME280;3001;42.622;23.194;2023-03-20T06:47:29;91559.88;;;9.22;61.37
5952;BME280;3001;42.622;23.194;2023-03-20T06:49:56;91561.28;;;9.46;60.51
5952;BME280;3001;42.622;23.194;2023-03-20T06:52:22;91562.91;;;9.56;61.37
5952;BME280;3001;42.622;23.194;2023-03-20T06:54:49;91559.38;;;9.65;61.09
5952;BME280;3001;42.622;23.194;2023-03-20T06:57:16;91570.22;;;9.81;61.49
5952;BME280;3001;42.622;23.194;2023-03-20T06:59:43;91556.41;;;9.85;61.10
5952;BME280;3001;42.622;23.194;2023-03-20T07:02:10;91566.31;;;10.10;60.70
5952;BME280;3001;42.622;23.194;2023-03-20T07:04:38;91568.31;;;10.13;59.36
5952;BME280;3001;42.622;23.194;2023-03-20T07:07:05;91559.75;;;10.26;57.86
5952;BME280;3001;42.622;23.194;2023-03-20T07:09:32;91562.13;;;10.36;59.19
5952;BME280;3001;42.622;23.194;2023-03-20T07:11:58;91557.03;;;10.31;59.12
5952;BME280;3001;42.622;23.194;2023-03-20T07:14:25;91563.00;;;10.32;59.51
5952;BME280;3001;42.622;23.194;2023-03-20T07:16:52;91558.38;;;10.42;60.10
5952;BME280;3001;42.622;23.194;2023-03-20T07:19:19;91560.75;;;10.52;59.33
5952;BME280;3001;42.622;23.194;2023-03-20T07:21:47;91553.22;;;10.64;59.11
5952;BME280;3001;42.622;23.194;2023-03-20T07:24:13;91563.50;;;10.69;59.27
5952;BME280;3001;42.622;23.194;2023-03-20T07:26:40;91562.19;;;10.80;57.14
5952;BME280;3001;42.622;23.194;2023-03-20T07:29:07;91558.25;;;10.82;57.51
5952;BME280;3001;42.622;23.194;2023-03-20T07:31:34;91562.63;;;10.95;57.17
5952;BME280;3001;42.622;23.194;2023-03-20T07:34:00;91560.84;;;11.04;56.50
5952;BME280;3001;42.622;23.194;2023-03-20T07:36:27;91565.31;;;11.12;56.92
5952;BME280;3001;42.622;23.194;2023-03-20T07:38:55;91562.97;;;11.24;56.72
5952;BME280;3001;42.622;23.194;2023-03-20T07:41:22;91563.75;;;11.25;56.67
5952;BME280;3001;42.622;23.194;2023-03-20T07:43:48;91564.44;;;11.17;57.37
5952;BME280;3001;42.622;23.194;2023-03-20T07:46:15;91558.78;;;11.45;57.25
5952;BME280;3001;42.622;23.194;2023-03-20T07:48:42;91558.25;;;11.57;56.83
5952;BME280;3001;42.622;23.194;2023-03-20T07:51:08;91564.91;;;11.71;57.14
5952;BME280;3001;42.622;23.194;2023-03-20T07:53:35;91561.41;;;11.76;57.36
5952;BME280;3001;42.622;23.194;2023-03-20T07:56:04;91565.41;;;11.82;57.92
5952;BME280;3001;42.622;23.194;2023-03-20T07:58:31;91560.56;;;11.89;58.41
5952;BME280;3001;42.622;23.194;2023-03-20T08:00:57;91561.34;;;11.98;57.72
5952;BME280;3001;42.622;23.194;2023-03-20T08:03:25;91563.56;;;12.21;55.16
5952;BME280;3001;42.622;23.194;2023-03-20T08:05:52;91558.50;;;12.24;56.94
5952;BME280;3001;42.622;23.194;2023-03-20T08:08:19;91562.88;;;12.54;54.28
5952;BME280;3001;42.622;23.194;2023-03-20T08:10:46;91562.72;;;12.68;54.13
5952;BME280;3001;42.622;23.194;2023-03-20T08:13:14;91556.16;;;12.87;54.49
5952;BME280;3001;42.622;23.194;2023-03-20T08:15:41;91561.81;;;13.15;52.08
5952;BME280;3001;42.622;23.194;2023-03-20T08:18:08;91556.00;;;13.18;52.49
5952;BME280;3001;42.622;23.194;2023-03-20T08:20:35;91557.66;;;13.31;53.36
5952;BME280;3001;42.622;23.194;2023-03-20T08:23:01;91569.75;;;13.61;54.02
5952;BME280;3001;42.622;23.194;2023-03-20T08:25:28;91564.66;;;13.64;55.41
5952;BME280;3001;42.622;23.194;2023-03-20T08:27:58;91570.59;;;13.82;53.70
5952;BME280;3001;42.622;23.194;2023-03-20T08:30:26;91572.84;;;13.91;53.31
5952;BME280;3001;42.622;23.194;2023-03-20T08:32:52;91572.53;;;14.39;47.96
5952;BME280;3001;42.622;23.194;2023-03-20T08:35:19;91578.59;;;14.51;48.25
5952;BME280;3001;42.622;23.194;2023-03-20T08:37:46;91578.13;;;14.58;46.39
5952;BME280;3001;42.622;23.194;2023-03-20T08:40:13;91576.19;;;14.67;46.50
5952;BME280;3001;42.622;23.194;2023-03-20T08:42:41;91577.91;;;14.92;44.69
5952;BME280;3001;42.622;23.194;2023-03-20T08:45:08;91574.94;;;14.93;44.29
5952;BME280;3001;42.622;23.194;2023-03-20T08:47:36;91567.63;;;15.07;42.60
5952;BME280;3001;42.622;23.194;2023-03-20T08:50:04;91570.91;;;15.16;42.07
5952;BME280;3001;42.622;23.194;2023-03-20T08:52:31;91574.81;;;15.31;41.23
5952;BME280;3001;42.622;23.194;2023-03-20T08:54:58;91571.25;;;15.67;40.51
5952;BME280;3001;42.622;23.194;2023-03-20T08:57:24;91570.19;;;15.92;39.57
5952;BME280;3001;42.622;23.194;2023-03-20T08:59:51;91565.53;;;15.98;40.17
5952;BME280;3001;42.622;23.194;2023-03-20T09:02:18;91572.22;;;16.31;39.75
5952;BME280;3001;42.622;23.194;2023-03-20T09:04:46;91564.25;;;16.76;38.25
5952;BME280;3001;42.622;23.194;2023-03-20T09:07:13;91573.72;;;16.92;37.11
5952;BME280;3001;42.622;23.194;2023-03-20T09:09:40;91573.03;;;17.07;36.40
5952;BME280;3001;42.622;23.194;2023-03-20T09:12:07;91566.44;;;17.25;35.65
5952;BME280;3001;42.622;23.194;2023-03-20T09:14:33;91560.41;;;17.37;34.79
5952;BME280;3001;42.622;23.194;2023-03-20T09:17:00;91565.88;;;17.32;34.94
5952;BME280;3001;42.622;23.194;2023-03-20T09:19:27;91572.28;;;17.46;35.34
5952;BME280;3001;42.622;23.194;2023-03-20T09:21:55;91570.66;;;17.69;34.82
5952;BME280;3001;42.622;23.194;2023-03-20T09:24:22;91567.84;;;17.89;34.32
5952;BME280;3001;42.622;23.194;2023-03-20T09:26:48;91560.28;;;18.03;34.90
5952;BME280;3001;42.622;23.194;2023-03-20T09:29:15;91558.34;;;18.16;34.59
5952;BME280;3001;42.622;23.194;2023-03-20T09:31:42;91566.59;;;18.45;33.80
5952;BME280;3001;42.622;23.194;2023-03-20T09:34:09;91551.72;;;18.53;33.30
5952;BME280;3001;42.622;23.194;2023-03-20T09:36:35;91556.03;;;18.76;32.26
5952;BME280;3001;42.622;23.194;2023-03-20T09:39:03;91554.19;;;18.96;31.52
5952;BME280;3001;42.622;23.194;2023-03-20T09:41:30;91550.34;;;19.09;32.59
5952;BME280;3001;42.622;23.194;2023-03-20T09:44:11;91549.66;;;19.12;29.49
5952;BME280;3001;42.622;23.194;2023-03-20T09:46:52;91523.31;;;19.12;30.27
5952;BME280;3001;42.622;23.194;2023-03-20T09:49:29;91536.44;;;19.46;31.18
5952;BME280;3001;42.622;23.194;2023-03-20T09:52:02;91513.94;;;19.48;32.49
5952;BME280;3001;42.622;23.194;2023-03-20T09:54:34;91525.97;;;19.68;31.01
5952;BME280;3001;42.622;23.194;2023-03-20T09:57:03;91522.88;;;20.04;30.98
5952;BME280;3001;42.622;23.194;2023-03-20T09:59:31;91519.97;;;19.90;30.05
5952;BME280;3001;42.622;23.194;2023-03-20T10:02:03;91521.53;;;19.72;29.19
5952;BME280;3001;42.622;23.194;2023-03-20T10:04:31;91508.81;;;19.78;29.89
5952;BME280;3001;42.622;23.194;2023-03-20T10:07:00;91508.81;;;20.00;30.75
5952;BME280;3001;42.622;23.194;2023-03-20T10:09:29;91503.91;;;20.21;31.29
5952;BME280;3001;42.622;23.194;2023-03-20T10:12:07;91508.63;;;20.31;30.24
5952;BME280;3001;42.622;23.194;2023-03-20T10:14:44;91498.06;;;20.57;29.38
5952;BME280;3001;42.622;23.194;2023-03-20T10:17:29;91502.25;;;20.58;28.40
5952;BME280;3001;42.622;23.194;2023-03-20T10:20:03;91503.75;;;20.59;28.28
5952;BME280;3001;42.622;23.194;2023-03-20T10:22:37;91503.50;;;20.90;29.01
5952;BME280;3001;42.622;23.194;2023-03-20T10:25:07;91505.50;;;21.00;27.33
5952;BME280;3001;42.622;23.194;2023-03-20T10:27:46;91501.72;;;21.01;28.07
5952;BME280;3001;42.622;23.194;2023-03-20T10:30:25;91497.88;;;21.24;28.39
5952;BME280;3001;42.622;23.194;2023-03-20T10:33:02;91489.16;;;21.20;25.42
5952;BME280;3001;42.622;23.194;2023-03-20T10:35:38;91500.78;;;21.45;26.42
5952;BME280;3001;42.622;23.194;2023-03-20T10:38:20;91496.59;;;21.74;25.39
5952;BME280;3001;42.622;23.194;2023-03-20T10:40:50;91493.22;;;21.77;25.13
5952;BME280;3001;42.622;23.194;2023-03-20T10:43:20;91485.34;;;21.84;25.57
5952;BME280;3001;42.622;23.194;2023-03-20T10:45:49;91488.22;;;22.08;26.44
5952;BME280;3001;42.622;23.194;2023-03-20T10:48:22;91478.06;;;22.14;26.09
5952;BME280;3001;42.622;23.194;2023-03-20T10:50:53;91484.28;;;22.32;24.66
5952;BME280;3001;42.622;23.194;2023-03-20T10:53:28;91480.69;;;22.54;25.83
5952;BME280;3001;42.622;23.194;2023-03-20T10:55:59;91486.41;;;22.63;24.47
5952;BME280;3001;42.622;23.194;2023-03-20T10:58:31;91484.47;;;22.53;22.79
5952;BME280;3001;42.622;23.194;2023-03-20T11:00:58;91472.09;;;22.24;23.01
5952;BME280;3001;42.622;23.194;2023-03-20T11:03:28;91484.72;;;22.37;23.56
5952;BME280;3001;42.622;23.194;2023-03-20T11:05:59;91473.09;;;22.49;24.81
5952;BME280;3001;42.622;23.194;2023-03-20T11:08:32;91471.63;;;22.55;23.51
5952;BME280;3001;42.622;23.194;2023-03-20T11:11:02;91466.34;;;22.58;23.74
5952;BME280;3001;42.622;23.194;2023-03-20T11:13:33;91467.84;;;22.56;23.39
5952;BME280;3001;42.622;23.194;2023-03-20T11:16:16;91460.78;;;22.74;23.41
5952;BME280;3001;42.622;23.194;2023-03-20T11:18:43;91463.13;;;22.89;24.20
5952;BME280;3001;42.622;23.194;2023-03-20T11:21:15;91472.91;;;22.82;22.07
5952;BME280;3001;42.622;23.194;2023-03-20T11:23:44;91465.69;;;22.75;22.10
5952;BME280;3001;42.622;23.194;2023-03-20T11:26:12;91457.81;;;22.82;23.03
5952;BME280;3001;42.622;23.194;2023-03-20T11:28:46;91451.78;;;22.89;22.97
5952;BME280;3001;42.622;23.194;2023-03-20T11:31:16;91444.88;;;22.74;25.15
5952;BME280;3001;42.622;23.194;2023-03-20T11:33:45;91444.56;;;22.86;25.27
5952;BME280;3001;42.622;23.194;2023-03-20T11:36:20;91429.16;;;23.08;24.88
5952;BME280;3001;42.622;23.194;2023-03-20T11:38:49;91426.59;;;23.19;24.86
5952;BME280;3001;42.622;23.194;2023-03-20T11:41:21;91423.16;;;23.11;24.44
5952;BME280;3001;42.622;23.194;2023-03-20T11:43:50;91428.72;;;22.92;23.51
5952;BME280;3001;42.622;23.194;2023-03-20T11:46:18;91417.38;;;23.02;23.55
5952;BME280;3001;42.622;23.194;2023-03-20T11:49:01;91412.06;;;22.95;24.91
5952;BME280;3001;42.622;23.194;2023-03-20T11:51:28;91406.09;;;23.16;24.51
5952;BME280;3001;42.622;23.194;2023-03-20T11:53:59;91399.00;;;23.37;24.20
5952;BME280;3001;42.622;23.194;2023-03-20T11:56:28;91403.19;;;23.49;23.64
5952;BME280;3001;42.622;23.194;2023-03-20T11:59:01;91403.91;;;23.35;22.42
5952;BME280;3001;42.622;23.194;2023-03-20T12:01:37;91399.69;;;23.13;22.40
5952;BME280;3001;42.622;23.194;2023-03-20T12:04:11;91389.09;;;23.20;23.22
5952;BME280;3001;42.622;23.194;2023-03-20T12:06:42;91395.16;;;23.24;23.44
5952;BME280;3001;42.622;23.194;2023-03-20T12:09:18;91390.66;;;23.42;23.79
5952;BME280;3001;42.622;23.194;2023-03-20T12:11:51;91379.38;;;23.73;23.76
5952;BME280;3001;42.622;23.194;2023-03-20T12:14:26;91381.69;;;24.03;22.71
5952;BME280;3001;42.622;23.194;2023-03-20T12:17:09;91378.63;;;24.15;23.34
5952;BME280;3001;42.622;23.194;2023-03-20T12:19:39;91387.00;;;24.13;22.35
5952;BME280;3001;42.622;23.194;2023-03-20T12:22:15;91374.84;;;24.19;23.17
5952;BME280;3001;42.622;23.194;2023-03-20T12:24:52;91373.69;;;24.45;24.99
5952;BME280;3001;42.622;23.194;2023-03-20T12:27:26;91371.75;;;24.73;28.32
5952;BME280;3001;42.622;23.194;2023-03-20T12:29:59;91371.69;;;24.87;26.59
5952;BME280;3001;42.622;23.194;2023-03-20T12:32:34;91373.16;;;25.05;26.19
5952;BME280;3001;42.622;23.194;2023-03-20T12:35:10;91368.16;;;25.25;26.22
5952;BME280;3001;42.622;23.194;2023-03-20T12:37:39;91379.47;;;25.43;20.57
5952;BME280;3001;42.622;23.194;2023-03-20T12:40:14;91374.72;;;25.75;21.43
5952;BME280;3001;42.622;23.194;2023-03-20T12:42:50;91363.38;;;25.64;23.62
5952;BME280;3001;42.622;23.194;2023-03-20T12:45:24;91361.84;;;25.66;24.89
5952;BME280;3001;42.622;23.194;2023-03-20T12:48:12;91355.75;;;25.69;25.53
5952;BME280;3001;42.622;23.194;2023-03-20T12:50:47;91336.78;;;25.60;26.76
5952;BME280;3001;42.622;23.194;2023-03-20T12:53:24;91351.50;;;25.79;26.78
5952;BME280;3001;42.622;23.194;2023-03-20T12:56:02;91337.34;;;25.96;26.55
5952;BME280;3001;42.622;23.194;2023-03-20T12:58:39;91337.19;;;26.13;27.42
5952;BME280;3001;42.622;23.194;2023-03-20T13:01:12;91339.88;;;26.54;27.00
5952;BME280;3001;42.622;23.194;2023-03-20T13:04:02;91339.50;;;26.52;27.07
5952;BME280;3001;42.622;23.194;2023-03-20T13:06:40;91338.69;;;26.58;26.60
5952;BME280;3001;42.622;23.194;2023-03-20T13:12:22;91335.59;;;26.63;25.85
5952;BME280;3001;42.622;23.194;2023-03-20T13:14:59;91327.06;;;26.78;25.01
5952;BME280;3001;42.622;23.194;2023-03-20T13:17:32;91319.09;;;26.75;26.17
5952;BME280;3001;42.622;23.194;2023-03-20T13:20:17;91319.94;;;26.68;26.48
5952;BME280;3001;42.622;23.194;2023-03-20T13:22:53;91315.41;;;26.62;25.78
5952;BME280;3001;42.622;23.194;2023-03-20T13:25:39;91321.69;;;26.45;25.83
5952;BME280;3001;42.622;23.194;2023-03-20T13:28:14;91314.66;;;26.21;25.44
5952;BME280;3001;42.622;23.194;2023-03-20T13:30:50;91311.25;;;26.21;26.61
5952;BME280;3001;42.622;23.194;2023-03-20T13:33:29;91311.88;;;26.35;26.77
5952;BME280;3001;42.622;23.194;2023-03-20T13:36:03;91313.31;;;26.43;26.05
5952;BME280;3001;42.622;23.194;2023-03-20T13:38:34;91306.56;;;26.32;26.06
5952;BME280;3001;42.622;23.194;2023-03-20T13:41:04;91301.16;;;26.02;26.02
5952;BME280;3001;42.622;23.194;2023-03-20T13:43:37;91302.75;;;25.96;25.67
5952;BME280;3001;42.622;23.194;2023-03-20T13:46:07;91305.31;;;26.03;25.85